sensor_id;sensor_type;location;lat;lon;timestamp;temperature;humidity
68139;DHT22;54940;50.842;4.410;2022-07-09T00:00:09;20.20;91.00
68139;DHT22;54940;50.842;4.410;2022-07-09T00:02:35;20.20;91.20
68139;DHT22;54940;50.842;4.410;2022-07-09T00:05:01;20.20;91.10
68139;DHT22;54940;50.842;4.410;2022-07-09T00:07:26;20.20;91.10
68139;DHT22;54940;50.842;4.410;2022-07-09T00:09:52;20.10;91.20
68139;DHT22;54940;50.842;4.410;2022-07-09T00:12:18;20.10;91.20
68139;DHT22;54940;50.842;4.410;2022-07-09T00:14:44;20.10;91.20
68139;DHT22;54940;50.842;4.410;2022-07-09T00:17:10;20.10;91.40
68139;DHT22;54940;50.842;4.410;2022-07-09T00:19:35;20.10;91.50
68139;DHT22;54940;50.842;4.410;2022-07-09T00:22:01;20.00;91.70
68139;DHT22;54940;50.842;4.410;2022-07-09T00:24:27;20.00;91.60
68139;DHT22;54940;50.842;4.410;2022-07-09T00:26:53;20.00;91.80
68139;DHT22;54940;50.842;4.410;2022-07-09T00:29:18;20.00;91.70
68139;DHT22;54940;50.842;4.410;2022-07-09T00:31:44;19.90;91.90
68139;DHT22;54940;50.842;4.410;2022-07-09T00:34:11;19.90;92.00
68139;DHT22;54940;50.842;4.410;2022-07-09T00:36:37;19.90;92.10
68139;DHT22;54940;50.842;4.410;2022-07-09T00:39:04;19.90;92.10
68139;DHT22;54940;50.842;4.410;2022-07-09T00:41:29;19.80;92.00
68139;DHT22;54940;50.842;4.410;2022-07-09T00:43:55;19.80;92.00
68139;DHT22;54940;50.842;4.410;2022-07-09T00:46:21;19.80;92.10
68139;DHT22;54940;50.842;4.410;2022-07-09T00:48:47;19.80;92.20
68139;DHT22;54940;50.842;4.410;2022-07-09T00:51:14;19.80;92.40
68139;DHT22;54940;50.842;4.410;2022-07-09T00:53:40;19.80;92.40
68139;DHT22;54940;50.842;4.410;2022-07-09T00:56:07;19.80;92.40
68139;DHT22;54940;50.842;4.410;2022-07-09T00:58:35;19.70;92.50
68139;DHT22;54940;50.842;4.410;2022-07-09T01:01:02;19.60;92.70
68139;DHT22;54940;50.842;4.410;2022-07-09T01:03:28;19.70;92.70
68139;DHT22;54940;50.842;4.410;2022-07-09T01:05:53;19.70;92.60
68139;DHT22;54940;50.842;4.410;2022-07-09T01:08:22;19.60;92.70
68139;DHT22;54940;50.842;4.410;2022-07-09T01:10:48;19.60;92.70
68139;DHT22;54940;50.842;4.410;2022-07-09T01:13:15;19.60;92.70
68139;DHT22;54940;50.842;4.410;2022-07-09T01:15:41;19.50;93.10
68139;DHT22;54940;50.842;4.410;2022-07-09T01:18:10;19.50;93.10
68139;DHT22;54940;50.842;4.410;2022-07-09T01:20:36;19.50;93.10
68139;DHT22;54940;50.842;4.410;2022-07-09T01:23:02;19.50;93.20
68139;DHT22;54940;50.842;4.410;2022-07-09T01:25:35;19.50;93.10
68139;DHT22;54940;50.842;4.410;2022-07-09T01:28:02;19.50;93.50
68139;DHT22;54940;50.842;4.410;2022-07-09T01:30:30;19.50;93.50
68139;DHT22;54940;50.842;4.410;2022-07-09T01:32:56;19.50;93.40
68139;DHT22;54940;50.842;4.410;2022-07-09T01:35:22;19.50;93.70
68139;DHT22;54940;50.842;4.410;2022-07-09T01:37:47;19.50;93.50
68139;DHT22;54940;50.842;4.410;2022-07-09T01:40:13;19.50;93.60
68139;DHT22;54940;50.842;4.410;2022-07-09T01:42:39;19.50;93.80
68139;DHT22;54940;50.842;4.410;2022-07-09T01:45:05;19.50;93.60
68139;DHT22;54940;50.842;4.410;2022-07-09T01:47:31;19.50;94.10
68139;DHT22;54940;50.842;4.410;2022-07-09T01:49:57;19.50;94.20
68139;DHT22;54940;50.842;4.410;2022-07-09T01:52:23;19.40;94.00
68139;DHT22;54940;50.842;4.410;2022-07-09T01:54:48;19.30;94.30
68139;DHT22;54940;50.842;4.410;2022-07-09T01:57:14;19.30;94.20
68139;DHT22;54940;50.842;4.410;2022-07-09T01:59:40;19.30;94.40
68139;DHT22;54940;50.842;4.410;2022-07-09T02:02:05;19.20;94.50
68139;DHT22;54940;50.842;4.410;2022-07-09T02:04:31;19.20;94.60
68139;DHT22;54940;50.842;4.410;2022-07-09T02:06:57;19.20;94.50
68139;DHT22;54940;50.842;4.410;2022-07-09T02:09:23;19.20;94.70
68139;DHT22;54940;50.842;4.410;2022-07-09T02:11:49;19.20;94.80
68139;DHT22;54940;50.842;4.410;2022-07-09T02:14:15;19.20;94.70
68139;DHT22;54940;50.842;4.410;2022-07-09T02:16:41;19.10;94.60
68139;DHT22;54940;50.842;4.410;2022-07-09T02:19:06;19.10;94.60
68139;DHT22;54940;50.842;4.410;2022-07-09T02:21:33;19.10;94.60
68139;DHT22;54940;50.842;4.410;2022-07-09T02:23:59;19.20;94.60
68139;DHT22;54940;50.842;4.410;2022-07-09T02:26:28;19.10;94.60
68139;DHT22;54940;50.842;4.410;2022-07-09T02:28:58;19.20;94.50
68139;DHT22;54940;50.842;4.410;2022-07-09T02:31:24;19.10;94.60
68139;DHT22;54940;50.842;4.410;2022-07-09T02:33:50;19.10;94.90
68139;DHT22;54940;50.842;4.410;2022-07-09T02:36:16;19.10;94.90
68139;DHT22;54940;50.842;4.410;2022-07-09T02:38:42;19.10;95.00
68139;DHT22;54940;50.842;4.410;2022-07-09T02:41:07;19.10;95.00
68139;DHT22;54940;50.842;4.410;2022-07-09T02:43:33;19.10;95.20
68139;DHT22;54940;50.842;4.410;2022-07-09T02:45:58;19.00;95.50
68139;DHT22;54940;50.842;4.410;2022-07-09T02:48:25;19.00;95.60
68139;DHT22;54940;50.842;4.410;2022-07-09T02:50:51;19.00;96.20
68139;DHT22;54940;50.842;4.410;2022-07-09T02:53:17;19.00;96.00
68139;DHT22;54940;50.842;4.410;2022-07-09T02:55:43;19.00;95.60
68139;DHT22;54940;50.842;4.410;2022-07-09T02:58:09;18.90;95.90
68139;DHT22;54940;50.842;4.410;2022-07-09T03:00:36;19.00;95.70
68139;DHT22;54940;50.842;4.410;2022-07-09T03:03:02;19.00;95.70
68139;DHT22;54940;50.842;4.410;2022-07-09T03:05:28;19.00;96.00
68139;DHT22;54940;50.842;4.410;2022-07-09T03:07:53;19.00;96.00
68139;DHT22;54940;50.842;4.410;2022-07-09T03:10:19;19.00;96.60
68139;DHT22;54940;50.842;4.410;2022-07-09T03:12:45;19.10;96.30
68139;DHT22;54940;50.842;4.410;2022-07-09T03:15:10;19.00;96.50
68139;DHT22;54940;50.842;4.410;2022-07-09T03:17:38;19.10;96.10
68139;DHT22;54940;50.842;4.410;2022-07-09T03:20:04;19.10;96.60
68139;DHT22;54940;50.842;4.410;2022-07-09T03:22:30;19.10;96.70
68139;DHT22;54940;50.842;4.410;2022-07-09T03:24:56;19.10;97.10
68139;DHT22;54940;50.842;4.410;2022-07-09T03:27:22;19.10;97.50
68139;DHT22;54940;50.842;4.410;2022-07-09T03:29:48;19.10;96.60
68139;DHT22;54940;50.842;4.410;2022-07-09T03:32:13;19.10;97.70
68139;DHT22;54940;50.842;4.410;2022-07-09T03:34:39;19.10;96.90
68139;DHT22;54940;50.842;4.410;2022-07-09T03:37:05;19.20;97.60
68139;DHT22;54940;50.842;4.410;2022-07-09T03:39:31;19.10;98.20
68139;DHT22;54940;50.842;4.410;2022-07-09T03:41:56;19.10;97.60
68139;DHT22;54940;50.842;4.410;2022-07-09T03:44:22;19.10;97.80
68139;DHT22;54940;50.842;4.410;2022-07-09T03:46:48;19.10;97.70
68139;DHT22;54940;50.842;4.410;2022-07-09T03:49:13;19.10;97.50
68139;DHT22;54940;50.842;4.410;2022-07-09T03:51:39;19.10;98.50
68139;DHT22;54940;50.842;4.410;2022-07-09T03:54:05;19.00;98.20
68139;DHT22;54940;50.842;4.410;2022-07-09T03:56:30;19.00;98.30
68139;DHT22;54940;50.842;4.410;2022-07-09T03:58:56;19.10;97.90
68139;DHT22;54940;50.842;4.410;2022-07-09T04:01:22;19.10;97.70
68139;DHT22;54940;50.842;4.410;2022-07-09T04:03:47;19.10;97.90
68139;DHT22;54940;50.842;4.410;2022-07-09T04:06:13;19.10;97.80
68139;DHT22;54940;50.842;4.410;2022-07-09T04:08:39;19.10;97.80
68139;DHT22;54940;50.842;4.410;2022-07-09T04:11:04;19.10;97.50
68139;DHT22;54940;50.842;4.410;2022-07-09T04:13:30;19.10;98.20
68139;DHT22;54940;50.842;4.410;2022-07-09T04:15:55;19.10;97.90
68139;DHT22;54940;50.842;4.410;2022-07-09T04:18:21;19.10;98.40
68139;DHT22;54940;50.842;4.410;2022-07-09T04:20:47;19.00;98.50
68139;DHT22;54940;50.842;4.410;2022-07-09T04:23:12;19.00;98.40
68139;DHT22;54940;50.842;4.410;2022-07-09T04:25:38;19.10;98.10
68139;DHT22;54940;50.842;4.410;2022-07-09T04:28:04;19.10;98.30
68139;DHT22;54940;50.842;4.410;2022-07-09T04:30:30;19.10;97.90
68139;DHT22;54940;50.842;4.410;2022-07-09T04:32:56;19.10;98.20
68139;DHT22;54940;50.842;4.410;2022-07-09T04:35:22;19.20;98.00
68139;DHT22;54940;50.842;4.410;2022-07-09T04:37:48;19.30;97.80
68139;DHT22;54940;50.842;4.410;2022-07-09T04:40:14;19.20;98.60
68139;DHT22;54940;50.842;4.410;2022-07-09T04:42:39;19.20;98.10
68139;DHT22;54940;50.842;4.410;2022-07-09T04:45:05;19.30;98.40
68139;DHT22;54940;50.842;4.410;2022-07-09T04:47:31;19.20;98.40
68139;DHT22;54940;50.842;4.410;2022-07-09T04:49:57;19.20;98.20
68139;DHT22;54940;50.842;4.410;2022-07-09T04:52:22;19.20;98.10
68139;DHT22;54940;50.842;4.410;2022-07-09T04:54:52;19.30;98.40
68139;DHT22;54940;50.842;4.410;2022-07-09T04:57:18;19.20;98.60
68139;DHT22;54940;50.842;4.410;2022-07-09T04:59:43;19.30;98.20
68139;DHT22;54940;50.842;4.410;2022-07-09T05:02:09;19.30;98.00
68139;DHT22;54940;50.842;4.410;2022-07-09T05:04:35;19.40;98.40
68139;DHT22;54940;50.842;4.410;2022-07-09T05:07:00;19.40;99.10
68139;DHT22;54940;50.842;4.410;2022-07-09T05:09:26;19.40;98.70
68139;DHT22;54940;50.842;4.410;2022-07-09T05:11:51;19.40;98.40
68139;DHT22;54940;50.842;4.410;2022-07-09T05:14:18;19.50;98.60
68139;DHT22;54940;50.842;4.410;2022-07-09T05:16:43;19.70;98.40
68139;DHT22;54940;50.842;4.410;2022-07-09T05:19:11;19.70;98.30
68139;DHT22;54940;50.842;4.410;2022-07-09T05:21:38;19.70;98.30
68139;DHT22;54940;50.842;4.410;2022-07-09T05:24:04;19.70;98.00
68139;DHT22;54940;50.842;4.410;2022-07-09T05:26:31;19.80;97.90
68139;DHT22;54940;50.842;4.410;2022-07-09T05:28:59;20.30;97.10
68139;DHT22;54940;50.842;4.410;2022-07-09T05:31:25;21.00;96.50
68139;DHT22;54940;50.842;4.410;2022-07-09T05:33:51;21.60;94.50
68139;DHT22;54940;50.842;4.410;2022-07-09T05:36:17;22.20;93.70
68139;DHT22;54940;50.842;4.410;2022-07-09T05:38:44;22.90;93.70
68139;DHT22;54940;50.842;4.410;2022-07-09T05:41:10;23.30;92.70
68139;DHT22;54940;50.842;4.410;2022-07-09T05:43:36;23.60;91.40
68139;DHT22;54940;50.842;4.410;2022-07-09T05:46:02;23.80;90.40
68139;DHT22;54940;50.842;4.410;2022-07-09T05:48:28;24.20;90.70
68139;DHT22;54940;50.842;4.410;2022-07-09T05:50:53;24.30;89.80
68139;DHT22;54940;50.842;4.410;2022-07-09T05:53:20;24.20;86.10
68139;DHT22;54940;50.842;4.410;2022-07-09T05:55:46;24.20;89.80
68139;DHT22;54940;50.842;4.410;2022-07-09T05:58:12;24.30;87.80
68139;DHT22;54940;50.842;4.410;2022-07-09T06:00:37;24.30;87.70
68139;DHT22;54940;50.842;4.410;2022-07-09T06:03:03;24.30;85.70
68139;DHT22;54940;50.842;4.410;2022-07-09T06:05:29;24.50;84.70
68139;DHT22;54940;50.842;4.410;2022-07-09T06:07:55;24.90;87.00
68139;DHT22;54940;50.842;4.410;2022-07-09T06:10:21;25.30;85.20
68139;DHT22;54940;50.842;4.410;2022-07-09T06:12:47;25.50;84.00
68139;DHT22;54940;50.842;4.410;2022-07-09T06:15:13;25.60;82.60
68139;DHT22;54940;50.842;4.410;2022-07-09T06:17:38;25.60;79.90
68139;DHT22;54940;50.842;4.410;2022-07-09T06:20:05;25.40;81.10
68139;DHT22;54940;50.842;4.410;2022-07-09T06:22:31;25.70;84.90
68139;DHT22;54940;50.842;4.410;2022-07-09T06:24:56;25.80;82.40
68139;DHT22;54940;50.842;4.410;2022-07-09T06:27:22;25.70;80.20
68139;DHT22;54940;50.842;4.410;2022-07-09T06:29:48;25.40;79.80
68139;DHT22;54940;50.842;4.410;2022-07-09T06:32:13;25.40;80.20
68139;DHT22;54940;50.842;4.410;2022-07-09T06:34:39;25.30;81.90
68139;DHT22;54940;50.842;4.410;2022-07-09T06:37:04;25.40;81.80
68139;DHT22;54940;50.842;4.410;2022-07-09T06:39:30;25.60;82.90
68139;DHT22;54940;50.842;4.410;2022-07-09T06:42:12;26.20;83.20
68139;DHT22;54940;50.842;4.410;2022-07-09T06:44:38;26.30;77.80
68139;DHT22;54940;50.842;4.410;2022-07-09T06:47:04;26.20;79.80
68139;DHT22;54940;50.842;4.410;2022-07-09T06:49:31;26.10;79.90
68139;DHT22;54940;50.842;4.410;2022-07-09T06:51:56;26.10;78.20
68139;DHT22;54940;50.842;4.410;2022-07-09T06:54:22;26.30;79.70
68139;DHT22;54940;50.842;4.410;2022-07-09T06:56:48;26.30;79.10
68139;DHT22;54940;50.842;4.410;2022-07-09T06:59:14;26.40;74.70
68139;DHT22;54940;50.842;4.410;2022-07-09T07:01:39;25.90;75.60
68139;DHT22;54940;50.842;4.410;2022-07-09T07:04:06;25.50;76.20
68139;DHT22;54940;50.842;4.410;2022-07-09T07:06:31;25.40;77.30
68139;DHT22;54940;50.842;4.410;2022-07-09T07:08:57;25.70;79.20
68139;DHT22;54940;50.842;4.410;2022-07-09T07:11:24;26.00;79.90
68139;DHT22;54940;50.842;4.410;2022-07-09T07:13:49;26.00;79.10
68139;DHT22;54940;50.842;4.410;2022-07-09T07:16:15;26.00;75.30
68139;DHT22;54940;50.842;4.410;2022-07-09T07:18:40;25.70;79.90
68139;DHT22;54940;50.842;4.410;2022-07-09T07:21:06;25.60;78.30
68139;DHT22;54940;50.842;4.410;2022-07-09T07:23:32;25.50;84.10
68139;DHT22;54940;50.842;4.410;2022-07-09T07:25:58;25.40;79.10
68139;DHT22;54940;50.842;4.410;2022-07-09T07:28:24;25.30;80.30
68139;DHT22;54940;50.842;4.410;2022-07-09T07:30:50;25.70;82.20
68139;DHT22;54940;50.842;4.410;2022-07-09T07:33:18;26.00;78.90
68139;DHT22;54940;50.842;4.410;2022-07-09T07:35:44;26.20;81.90
68139;DHT22;54940;50.842;4.410;2022-07-09T07:38:10;26.60;79.90
68139;DHT22;54940;50.842;4.410;2022-07-09T07:40:35;26.90;78.20
68139;DHT22;54940;50.842;4.410;2022-07-09T07:43:04;27.20;76.20
68139;DHT22;54940;50.842;4.410;2022-07-09T07:45:31;27.00;78.60
68139;DHT22;54940;50.842;4.410;2022-07-09T07:47:57;26.50;77.80
68139;DHT22;54940;50.842;4.410;2022-07-09T07:50:23;26.10;78.60
68139;DHT22;54940;50.842;4.410;2022-07-09T07:52:49;26.10;78.70
68139;DHT22;54940;50.842;4.410;2022-07-09T07:55:15;26.40;78.80
68139;DHT22;54940;50.842;4.410;2022-07-09T07:57:41;26.60;77.30
68139;DHT22;54940;50.842;4.410;2022-07-09T08:00:07;26.60;77.30
68139;DHT22;54940;50.842;4.410;2022-07-09T08:02:33;27.00;80.20
68139;DHT22;54940;50.842;4.410;2022-07-09T08:05:00;27.50;81.90
68139;DHT22;54940;50.842;4.410;2022-07-09T08:07:26;27.80;74.60
68139;DHT22;54940;50.842;4.410;2022-07-09T08:09:52;27.90;77.60
68139;DHT22;54940;50.842;4.410;2022-07-09T08:12:18;28.00;82.50
68139;DHT22;54940;50.842;4.410;2022-07-09T08:14:43;28.10;77.40
68139;DHT22;54940;50.842;4.410;2022-07-09T08:17:09;28.10;76.30
68139;DHT22;54940;50.842;4.410;2022-07-09T08:19:35;28.30;76.70
68139;DHT22;54940;50.842;4.410;2022-07-09T08:22:00;28.20;77.20
68139;DHT22;54940;50.842;4.410;2022-07-09T08:24:26;28.70;75.90
68139;DHT22;54940;50.842;4.410;2022-07-09T08:26:52;28.40;76.60
68139;DHT22;54940;50.842;4.410;2022-07-09T08:29:18;28.50;75.20
68139;DHT22;54940;50.842;4.410;2022-07-09T08:31:44;28.60;75.20
68139;DHT22;54940;50.842;4.410;2022-07-09T08:34:10;28.50;73.20
68139;DHT22;54940;50.842;4.410;2022-07-09T08:36:36;28.50;73.50
68139;DHT22;54940;50.842;4.410;2022-07-09T08:39:02;28.60;73.60
68139;DHT22;54940;50.842;4.410;2022-07-09T08:41:28;28.90;73.30
68139;DHT22;54940;50.842;4.410;2022-07-09T08:43:54;28.80;73.80
68139;DHT22;54940;50.842;4.410;2022-07-09T08:46:20;29.00;75.30
68139;DHT22;54940;50.842;4.410;2022-07-09T08:48:46;29.00;72.80
68139;DHT22;54940;50.842;4.410;2022-07-09T08:51:12;29.00;75.30
68139;DHT22;54940;50.842;4.410;2022-07-09T08:53:42;28.90;73.30
68139;DHT22;54940;50.842;4.410;2022-07-09T08:56:09;28.80;74.80
68139;DHT22;54940;50.842;4.410;2022-07-09T08:58:35;28.30;71.50
68139;DHT22;54940;50.842;4.410;2022-07-09T09:01:01;28.10;76.30
68139;DHT22;54940;50.842;4.410;2022-07-09T09:03:27;28.10;76.40
68139;DHT22;54940;50.842;4.410;2022-07-09T09:06:06;28.30;79.10
68139;DHT22;54940;50.842;4.410;2022-07-09T09:08:44;28.60;79.60
68139;DHT22;54940;50.842;4.410;2022-07-09T09:11:24;29.10;80.10
68139;DHT22;54940;50.842;4.410;2022-07-09T09:13:50;28.80;76.60
68139;DHT22;54940;50.842;4.410;2022-07-09T09:16:18;28.80;73.10
68139;DHT22;54940;50.842;4.410;2022-07-09T09:18:46;28.60;72.60
68139;DHT22;54940;50.842;4.410;2022-07-09T09:21:13;28.90;79.80
68139;DHT22;54940;50.842;4.410;2022-07-09T09:26:19;28.90;72.50
68139;DHT22;54940;50.842;4.410;2022-07-09T09:28:59;28.60;72.50
68139;DHT22;54940;50.842;4.410;2022-07-09T09:31:28;28.90;77.10
68139;DHT22;54940;50.842;4.410;2022-07-09T09:36:35;28.60;76.30
68139;DHT22;54940;50.842;4.410;2022-07-09T09:41:41;28.30;74.00
68139;DHT22;54940;50.842;4.410;2022-07-09T09:44:08;28.70;79.40
68139;DHT22;54940;50.842;4.410;2022-07-09T09:46:36;29.00;73.60
68139;DHT22;54940;50.842;4.410;2022-07-09T09:49:08;29.20;74.50
68139;DHT22;54940;50.842;4.410;2022-07-09T09:51:42;29.00;75.00
68139;DHT22;54940;50.842;4.410;2022-07-09T09:54:10;28.90;75.10
68139;DHT22;54940;50.842;4.410;2022-07-09T09:56:38;28.50;74.70
68139;DHT22;54940;50.842;4.410;2022-07-09T09:59:04;28.70;75.80
68139;DHT22;54940;50.842;4.410;2022-07-09T10:01:33;28.90;77.60
68139;DHT22;54940;50.842;4.410;2022-07-09T10:03:59;28.60;75.10
68139;DHT22;54940;50.842;4.410;2022-07-09T10:06:25;28.10;76.30
68139;DHT22;54940;50.842;4.410;2022-07-09T10:08:53;28.30;76.80
68139;DHT22;54940;50.842;4.410;2022-07-09T10:11:20;28.40;77.70
68139;DHT22;54940;50.842;4.410;2022-07-09T10:13:56;28.20;77.60
68139;DHT22;54940;50.842;4.410;2022-07-09T10:16:35;28.10;79.50
68139;DHT22;54940;50.842;4.410;2022-07-09T10:19:01;28.00;77.00
68139;DHT22;54940;50.842;4.410;2022-07-09T10:23:58;27.70;78.50
68139;DHT22;54940;50.842;4.410;2022-07-09T10:26:44;27.50;78.80
68139;DHT22;54940;50.842;4.410;2022-07-09T10:29:26;27.50;78.40
68139;DHT22;54940;50.842;4.410;2022-07-09T10:31:56;27.30;79.00
68139;DHT22;54940;50.842;4.410;2022-07-09T10:37:05;27.10;82.00
68139;DHT22;54940;50.842;4.410;2022-07-09T10:39:32;26.80;82.90
68139;DHT22;54940;50.842;4.410;2022-07-09T10:42:18;26.90;84.00
68139;DHT22;54940;50.842;4.410;2022-07-09T10:44:45;26.70;83.30
68139;DHT22;54940;50.842;4.410;2022-07-09T10:47:11;26.90;79.30
68139;DHT22;54940;50.842;4.410;2022-07-09T10:49:38;26.80;83.40
68139;DHT22;54940;50.842;4.410;2022-07-09T10:52:08;27.20;83.60
68139;DHT22;54940;50.842;4.410;2022-07-09T10:54:34;27.50;82.50
68139;DHT22;54940;50.842;4.410;2022-07-09T10:57:10;27.40;80.50
68139;DHT22;54940;50.842;4.410;2022-07-09T10:59:36;27.10;79.70
68139;DHT22;54940;50.842;4.410;2022-07-09T11:02:03;27.20;78.50
68139;DHT22;54940;50.842;4.410;2022-07-09T11:04:30;27.30;80.80
68139;DHT22;54940;50.842;4.410;2022-07-09T11:06:56;27.50;80.50
68139;DHT22;54940;50.842;4.410;2022-07-09T11:09:22;27.30;82.00
68139;DHT22;54940;50.842;4.410;2022-07-09T11:11:48;26.80;80.70
68139;DHT22;54940;50.842;4.410;2022-07-09T11:14:14;26.50;83.30
68139;DHT22;54940;50.842;4.410;2022-07-09T11:16:40;26.80;86.90
68139;DHT22;54940;50.842;4.410;2022-07-09T11:19:19;27.20;82.70
68139;DHT22;54940;50.842;4.410;2022-07-09T11:21:45;27.20;80.20
68139;DHT22;54940;50.842;4.410;2022-07-09T11:24:18;26.80;81.10
68139;DHT22;54940;50.842;4.410;2022-07-09T11:26:48;26.90;86.00
68139;DHT22;54940;50.842;4.410;2022-07-09T11:29:16;26.60;81.00
68139;DHT22;54940;50.842;4.410;2022-07-09T11:31:50;26.60;83.30
68139;DHT22;54940;50.842;4.410;2022-07-09T11:34:16;26.90;80.30
68139;DHT22;54940;50.842;4.410;2022-07-09T11:37:01;26.90;82.10
68139;DHT22;54940;50.842;4.410;2022-07-09T11:39:30;26.60;79.70
68139;DHT22;54940;50.842;4.410;2022-07-09T11:41:58;26.70;82.50
68139;DHT22;54940;50.842;4.410;2022-07-09T11:44:28;26.50;81.10
68139;DHT22;54940;50.842;4.410;2022-07-09T11:47:11;26.30;80.20
68139;DHT22;54940;50.842;4.410;2022-07-09T11:49:41;26.60;82.40
68139;DHT22;54940;50.842;4.410;2022-07-09T11:52:20;26.20;80.50
68139;DHT22;54940;50.842;4.410;2022-07-09T11:55:02;26.40;84.80
68139;DHT22;54940;50.842;4.410;2022-07-09T11:57:30;26.70;79.70
68139;DHT22;54940;50.842;4.410;2022-07-09T11:59:56;26.90;81.70
68139;DHT22;54940;50.842;4.410;2022-07-09T12:02:23;26.80;76.80
68139;DHT22;54940;50.842;4.410;2022-07-09T12:04:49;26.50;79.10
68139;DHT22;54940;50.842;4.410;2022-07-09T12:07:14;26.30;80.20
68139;DHT22;54940;50.842;4.410;2022-07-09T12:09:40;26.10;79.30
68139;DHT22;54940;50.842;4.410;2022-07-09T12:12:07;25.80;79.70
68139;DHT22;54940;50.842;4.410;2022-07-09T12:14:32;26.00;82.80
68139;DHT22;54940;50.842;4.410;2022-07-09T12:16:59;25.90;81.00
68139;DHT22;54940;50.842;4.410;2022-07-09T12:19:24;25.60;80.50
68139;DHT22;54940;50.842;4.410;2022-07-09T12:21:50;25.50;80.40
68139;DHT22;54940;50.842;4.410;2022-07-09T12:24:16;25.80;79.70
68139;DHT22;54940;50.842;4.410;2022-07-09T12:26:42;25.90;81.40
68139;DHT22;54940;50.842;4.410;2022-07-09T12:29:07;25.90;82.70
68139;DHT22;54940;50.842;4.410;2022-07-09T12:31:33;26.00;80.60
68139;DHT22;54940;50.842;4.410;2022-07-09T12:34:02;26.30;80.60
68139;DHT22;54940;50.842;4.410;2022-07-09T12:36:28;26.10;78.20
68139;DHT22;54940;50.842;4.410;2022-07-09T12:38:54;26.10;80.00
68139;DHT22;54940;50.842;4.410;2022-07-09T12:41:20;25.80;79.40
68139;DHT22;54940;50.842;4.410;2022-07-09T12:43:45;25.40;79.20
68139;DHT22;54940;50.842;4.410;2022-07-09T12:46:11;25.60;80.60
68139;DHT22;54940;50.842;4.410;2022-07-09T12:48:37;25.60;78.70
68139;DHT22;54940;50.842;4.410;2022-07-09T12:51:02;25.60;79.70
68139;DHT22;54940;50.842;4.410;2022-07-09T12:53:28;25.40;80.10
68139;DHT22;54940;50.842;4.410;2022-07-09T12:55:54;25.70;81.00
68139;DHT22;54940;50.842;4.410;2022-07-09T12:58:19;25.50;79.20
68139;DHT22;54940;50.842;4.410;2022-07-09T13:00:45;25.20;78.80
68139;DHT22;54940;50.842;4.410;2022-07-09T13:03:11;24.80;81.80
68139;DHT22;54940;50.842;4.410;2022-07-09T13:05:37;24.60;80.70
68139;DHT22;54940;50.842;4.410;2022-07-09T13:08:02;24.90;81.20
68139;DHT22;54940;50.842;4.410;2022-07-09T13:10:28;25.10;79.80
68139;DHT22;54940;50.842;4.410;2022-07-09T13:12:53;25.20;81.40
68139;DHT22;54940;50.842;4.410;2022-07-09T13:15:19;25.20;78.50
68139;DHT22;54940;50.842;4.410;2022-07-09T13:17:49;25.40;78.70
68139;DHT22;54940;50.842;4.410;2022-07-09T13:20:15;25.20;77.30
68139;DHT22;54940;50.842;4.410;2022-07-09T13:22:41;25.10;78.40
68139;DHT22;54940;50.842;4.410;2022-07-09T13:25:07;25.00;79.30
68139;DHT22;54940;50.842;4.410;2022-07-09T13:27:32;25.10;79.70
68139;DHT22;54940;50.842;4.410;2022-07-09T13:29:58;25.10;77.90
68139;DHT22;54940;50.842;4.410;2022-07-09T13:32:24;25.20;79.70
68139;DHT22;54940;50.842;4.410;2022-07-09T13:34:50;25.50;80.10
68139;DHT22;54940;50.842;4.410;2022-07-09T13:37:16;25.70;77.90
68139;DHT22;54940;50.842;4.410;2022-07-09T13:39:42;25.70;76.70
68139;DHT22;54940;50.842;4.410;2022-07-09T13:42:08;25.60;75.50
68139;DHT22;54940;50.842;4.410;2022-07-09T13:44:34;25.10;77.20
68139;DHT22;54940;50.842;4.410;2022-07-09T13:46:59;25.10;80.10
68139;DHT22;54940;50.842;4.410;2022-07-09T13:49:25;25.00;79.00
68139;DHT22;54940;50.842;4.410;2022-07-09T13:51:51;24.70;76.90
68139;DHT22;54940;50.842;4.410;2022-07-09T13:54:17;24.80;77.80
68139;DHT22;54940;50.842;4.410;2022-07-09T13:56:43;25.30;78.10
68139;DHT22;54940;50.842;4.410;2022-07-09T13:59:08;26.10;78.20
68139;DHT22;54940;50.842;4.410;2022-07-09T14:01:34;26.30;72.60
68139;DHT22;54940;50.842;4.410;2022-07-09T14:04:00;26.20;70.60
68139;DHT22;54940;50.842;4.410;2022-07-09T14:06:26;26.50;72.40
68139;DHT22;54940;50.842;4.410;2022-07-09T14:08:51;27.00;69.10
68139;DHT22;54940;50.842;4.410;2022-07-09T14:11:17;27.50;69.50
68139;DHT22;54940;50.842;4.410;2022-07-09T14:13:43;27.40;69.00
68139;DHT22;54940;50.842;4.410;2022-07-09T14:16:09;28.00;69.30
68139;DHT22;54940;50.842;4.410;2022-07-09T14:18:35;27.80;66.50
68139;DHT22;54940;50.842;4.410;2022-07-09T14:21:01;27.70;66.20
68139;DHT22;54940;50.842;4.410;2022-07-09T14:23:26;27.40;67.20
68139;DHT22;54940;50.842;4.410;2022-07-09T14:25:52;27.10;67.10
68139;DHT22;54940;50.842;4.410;2022-07-09T14:28:17;27.00;70.00
68139;DHT22;54940;50.842;4.410;2022-07-09T14:30:43;26.80;69.70
68139;DHT22;54940;50.842;4.410;2022-07-09T14:33:09;26.60;69.80
68139;DHT22;54940;50.842;4.410;2022-07-09T14:35:35;26.40;70.10
68139;DHT22;54940;50.842;4.410;2022-07-09T14:38:01;26.50;71.60
68139;DHT22;54940;50.842;4.410;2022-07-09T14:40:27;26.30;70.00
68139;DHT22;54940;50.842;4.410;2022-07-09T14:42:53;26.00;68.80
68139;DHT22;54940;50.842;4.410;2022-07-09T14:45:18;25.80;72.50
68139;DHT22;54940;50.842;4.410;2022-07-09T14:47:45;25.60;71.00
68139;DHT22;54940;50.842;4.410;2022-07-09T14:50:11;25.70;72.00
68139;DHT22;54940;50.842;4.410;2022-07-09T14:52:36;25.60;70.70
68139;DHT22;54940;50.842;4.410;2022-07-09T14:55:03;25.60;72.20
68139;DHT22;54940;50.842;4.410;2022-07-09T14:57:30;25.40;72.50
68139;DHT22;54940;50.842;4.410;2022-07-09T14:59:55;25.10;71.40
68139;DHT22;54940;50.842;4.410;2022-07-09T15:02:21;25.00;71.50
68139;DHT22;54940;50.842;4.410;2022-07-09T15:04:47;25.20;72.40
68139;DHT22;54940;50.842;4.410;2022-07-09T15:07:13;25.00;70.00
68139;DHT22;54940;50.842;4.410;2022-07-09T15:09:38;25.00;69.80
68139;DHT22;54940;50.842;4.410;2022-07-09T15:12:04;24.90;68.20
68139;DHT22;54940;50.842;4.410;2022-07-09T15:14:30;24.70;70.60
68139;DHT22;54940;50.842;4.410;2022-07-09T15:16:56;24.70;71.20
68139;DHT22;54940;50.842;4.410;2022-07-09T15:19:22;24.60;70.90
68139;DHT22;54940;50.842;4.410;2022-07-09T15:21:47;24.60;71.10
68139;DHT22;54940;50.842;4.410;2022-07-09T15:24:14;24.80;70.60
68139;DHT22;54940;50.842;4.410;2022-07-09T15:26:39;24.80;70.70
68139;DHT22;54940;50.842;4.410;2022-07-09T15:29:05;24.70;70.40
68139;DHT22;54940;50.842;4.410;2022-07-09T15:31:31;24.70;71.00
68139;DHT22;54940;50.842;4.410;2022-07-09T15:33:57;24.50;71.00
68139;DHT22;54940;50.842;4.410;2022-07-09T15:36:23;24.10;71.80
68139;DHT22;54940;50.842;4.410;2022-07-09T15:38:48;24.10;71.10